EW8748 Weather Reports


Display with metric or nautical units.
time (UTC)temp
F
wind
direction
speed
MPH
gust
MPH
rain 1hr
in
rain 24hr
in
rain mn
in
humidity
%
barometer
mb
20240523082512 73 182 1.0 8.0 0.00 0.00 0.00 39 1016.7
20240523082019 73 191 2.0 7.0 0.00 0.00 0.00 39 1016.8
20240523081020 73 103 2.0 3.0 0.00 0.00 0.00 40 1016.7
20240523080012 72 105 2.0 5.0 0.00 0.00 0.00 40 1016.7
20240523075512 72 96 2.0 5.0 0.00 0.00 0.00 41 1016.7
20240523073512 72 131 3.0 7.0 0.00 0.00 0.00 42 1016.8
20240523073019 72 78 2.0 7.0 0.00 0.00 0.00 42 1016.8
20240523072019 72 179 3.0 3.0 0.00 0.00 0.00 42 1016.8
20240523071020 71 28 2.0 5.0 0.00 0.00 0.00 43 1016.7
20240523070513 71 130 1.0 3.0 0.00 0.00 0.00 44 1016.7
20240523070012 71 105 1.0 3.0 0.00 0.00 0.00 44 1016.8
20240523065019 70 87 0.0 0.0 0.00 0.00 0.00 47 1016.7
20240523064019 68 66 0.0 0.0 0.00 0.00 0.00 48 1016.6
20240523063512 68 66 0.0 3.0 0.00 0.00 0.00 50 1016.6
20240523061019 67 119 1.0 3.0 0.00 0.00 0.00 55 1016.5
20240523060012 66 138 3.0 5.0 0.00 0.00 0.00 55 1016.4
20240523055512 66 170 3.0 6.0 0.00 0.00 0.00 55 1016.3
20240523055019 66 136 2.0 3.0 0.00 0.00 0.00 52 1016.2
20240523054512 67 119 2.0 3.0 0.00 0.00 0.00 51 1016.2
20240523054019 68 133 0.0 2.0 0.00 0.00 0.00 50 1016.2
20240523053019 67 136 0.0 0.0 0.00 0.00 0.00 52 1016.2
20240523052513 66 136 0.0 0.0 0.00 0.00 0.00 52 1016.4
20240523051512 65 136 0.0 0.0 0.00 0.00 0.00 53 1016.4
20240523045512 64 351 0.0 0.0 0.00 0.00 0.00 53 1016.3
20240523044514 62 351 0.0 0.0 0.00 0.00 0.00 53 1016.3
20240523044019 61 351 0.0 0.0 0.00 0.00 0.00 54 1016.4
20240523043019 61 338 0.0 0.0 0.00 0.00 0.00 55 1016.3
20240523042512 60 338 0.0 0.0 0.00 0.00 0.00 56 1016.4
20240523040512 60 338 0.0 0.0 0.00 0.00 0.00 61 1016.3
20240523040012 60 339 0.0 0.0 0.00 0.00 0.00 61 1016.2
20240523035019 60 340 0.0 0.0 0.00 0.00 0.00 62 1016.2
20240523034512 60 339 0.0 0.0 0.00 0.00 0.00 62 1016.2
20240523034019 60 340 0.0 0.0 0.00 0.00 0.00 61 1016.2
20240523032019 59 340 0.0 0.0 0.00 0.00 0.00 63 1016.1
20240523031511 59 339 0.0 0.0 0.00 0.00 0.00 63 1016.1
20240523031018 59 340 0.0 0.0 0.00 0.00 0.00 64 1016.1
20240523030512 59 340 0.0 0.0 0.00 0.00 0.00 65 1016.2
20240523025018 59 340 0.0 0.0 0.00 0.00 0.00 65 1016.3
20240523024511 59 340 0.0 0.0 0.00 0.00 0.00 65 1016.4
20240523023018 59 340 0.0 0.0 0.00 0.00 0.00 65 1016.4
20240523022512 59 340 0.0 0.0 0.00 0.00 0.00 65 1016.5
20240523015017 60 340 0.0 0.0 0.00 0.00 0.00 63 1016.6
20240523013511 60 340 0.0 0.0 0.00 0.00 0.00 63 1016.6
20240523013019 60 340 0.0 0.0 0.00 0.00 0.00 63 1016.6
20240523012018 60 340 0.0 3.0 0.00 0.00 0.00 63 1016.5
20240523011512 60 340 0.0 0.0 0.00 0.00 0.00 63 1016.6
20240523010011 60 340 0.0 0.0 0.00 0.00 0.00 62 1016.8
20240523005511 60 340 0.0 0.0 0.00 0.00 0.00 62 1016.8
20240523004511 61 340 0.0 0.0 0.00 0.00 0.00 60 1016.8
20240523004018 61 339 0.0 0.0 0.00 0.00 0.00 60 1016.8
20240523003513 61 339 0.0 0.0 0.00 0.00 0.00 60 1016.8
20240523003019 61 339 0.0 0.0 0.00 0.00 0.00 60 1016.8
20240523000513 61 11 0.0 1.0 0.00 0.00 0.00 60 1016.8
20240523000013 61 11 1.0 3.0 0.00 0.00 0.00 60 1016.8
20240522235513 61 319 1.0 3.0 0.00 0.00 0.00 60 1016.9
20240522234513 61 319 0.0 0.0 0.00 0.00 0.00 60 1017.1
20240522233513 61 319 1.0 2.0 0.00 0.00 0.00 60 1017.1
20240522232020 61 319 0.0 2.0 0.00 0.00 0.00 59 1017.2
20240522231513 61 319 0.0 2.0 0.00 0.00 0.00 59 1017.3
20240522230513 62 319 1.0 2.0 0.00 0.00 0.00 57 1017.4
20240522230014 62 319 1.0 3.0 0.00 0.00 0.00 57 1017.5
20240522224020 63 34 0.0 1.0 0.00 0.00 0.00 55 1017.7
20240522223513 63 34 0.0 0.0 0.00 0.00 0.00 55 1017.7
20240522223019 63 34 0.0 0.0 0.00 0.00 0.00 55 1017.6
20240522222513 63 34 0.0 0.0 0.00 0.00 0.00 55 1017.6
20240522222020 63 34 0.0 1.0 0.00 0.00 0.00 55 1017.6
20240522215513 64 34 0.0 2.0 0.00 0.00 0.00 53 1017.7
20240522214513 64 34 1.0 2.0 0.00 0.00 0.00 53 1017.7
20240522214020 64 34 0.0 0.0 0.00 0.00 0.00 52 1017.8
20240522211020 65 34 0.0 3.0 0.00 0.00 0.00 51 1017.9
20240522205513 65 34 2.0 3.0 0.00 0.00 0.00 50 1017.9
20240522204020 65 65 0.0 0.0 0.00 0.00 0.00 50 1017.7
20240522203513 65 65 0.0 1.0 0.00 0.00 0.00 50 1017.7
20240522203020 66 65 0.0 1.0 0.00 0.00 0.00 50 1017.5
20240522202513 66 65 0.0 2.0 0.00 0.00 0.00 49 1017.6
20240522202019 66 28 0.0 0.0 0.00 0.00 0.00 49 1017.6
20240522201513 66 29 0.0 1.0 0.00 0.00 0.00 49 1017.5
20240522200513 66 42 2.0 7.0 0.00 0.00 0.00 50 1017.2
20240522195020 67 53 5.0 9.0 0.00 0.00 0.00 48 1017.0
20240522193019 68 269 2.0 6.0 0.00 0.00 0.00 45 1016.6
20240522192513 68 297 3.0 5.0 0.00 0.00 0.00 45 1016.4
20240522192019 69 245 3.0 6.0 0.00 0.00 0.00 44 1016.4
20240522191019 69 288 5.0 10.0 0.00 0.00 0.00 44 1016.4
20240522190513 69 251 6.0 10.0 0.00 0.00 0.00 43 1016.3
20240522190013 69 331 5.0 8.0 0.00 0.00 0.00 43 1016.3
20240522185513 70 288 5.0 9.0 0.00 0.00 0.00 43 1016.2
20240522184513 70 310 4.0 8.0 0.00 0.00 0.00 42 1015.9
20240522184021 70 294 6.0 10.0 0.00 0.00 0.00 41 1015.8
20240522183513 71 281 5.0 10.0 0.00 0.00 0.00 41 1015.7
20240522175513 72 259 7.0 12.0 0.00 0.00 0.00 36 1015.4
20240522174513 72 251 3.0 12.0 0.00 0.00 0.00 33 1015.5
20240522173513 73 246 7.0 13.0 0.00 0.00 0.00 32 1015.4
20240522173020 73 271 7.0 14.0 0.00 0.00 0.00 32 1015.3
20240522172513 73 275 7.0 13.0 0.00 0.00 0.00 32 1015.2
20240522172020 74 241 6.0 15.0 0.00 0.00 0.00 33 1015.1
20240522171021 74 233 3.0 12.0 0.00 0.00 0.00 39 1015.0
20240522170013 74 239 6.0 12.0 0.00 0.00 0.00 37 1014.8
20240522165513 75 263 6.0 14.0 0.00 0.00 0.00 38 1014.6
20240522165020 75 223 6.0 12.0 0.00 0.00 0.00 37 1014.5
20240522164513 75 250 6.0 12.0 0.00 0.00 0.00 35 1014.3
20240522164020 74 297 7.0 13.0 0.00 0.00 0.00 39 1014.2
20240522163513 74 344 4.0 9.0 0.00 0.00 0.00 43 1014.3
20240522163021 74 19 6.0 12.0 0.00 0.00 0.00 42 1014.3
20240522161513 74 344 6.0 10.0 0.00 0.00 0.00 42 1014.3
20240522160513 75 5 8.0 12.0 0.00 0.00 0.00 42 1014.3
20240522160013 74 20 3.0 7.0 0.00 0.00 0.00 42 1014.2
20240522155513 74 28 1.0 7.0 0.00 0.00 0.00 43 1014.3
20240522155020 74 69 2.0 8.0 0.00 0.00 0.00 42 1014.2
20240522154513 74 61 3.0 10.0 0.00 0.00 0.00 43 1014.3
20240522154020 74 67 7.0 12.0 0.00 0.00 0.00 43 1014.2
20240522152513 74 35 9.0 18.0 0.00 0.00 0.00 43 1014.2
20240522152021 74 69 7.0 14.0 0.00 0.00 0.00 43 1014.2
20240522151513 75 90 10.0 20.0 0.00 0.00 0.00 42 1014.3
20240522150513 78 79 6.0 12.0 0.00 0.00 0.00 38 1014.5
20240522150013 79 234 5.0 12.0 0.00 0.00 0.00 32 1014.3
20240522144020 77 221 9.0 18.0 0.00 0.00 0.00 33 1014.0
20240522143513 77 233 10.0 16.0 0.00 0.00 0.00 36 1014.2
20240522142020 77 171 9.0 16.0 0.00 0.00 0.00 38 1014.4
20240522141513 77 194 9.0 18.0 0.00 0.00 0.00 39 1014.4
20240522141021 77 271 10.0 20.0 0.00 0.00 0.00 38 1014.4
20240522140512 77 255 6.0 16.0 0.00 0.00 0.00 39 1014.4
20240522135513 77 222 10.0 18.0 0.00 0.00 0.00 40 1014.6
20240522134512 77 192 9.0 15.0 0.00 0.00 0.00 39 1014.6
20240522133513 77 289 10.0 16.0 0.00 0.00 0.00 39 1014.8
20240522133020 77 227 10.0 15.0 0.00 0.00 0.00 39 1014.8
20240522132513 77 219 7.0 17.0 0.00 0.00 0.00 39 1014.7
20240522132021 77 296 10.0 20.0 0.00 0.00 0.00 39 1014.8
20240522131020 76 309 9.0 16.0 0.00 0.00 0.00 43 1014.7
20240522125020 76 255 9.0 17.0 0.00 0.00 0.00 41 1014.8
20240522124020 75 287 8.0 17.0 0.00 0.00 0.00 40 1014.9
20240522123020 74 222 12.0 21.0 0.00 0.00 0.00 40 1015.2
20240522122037 75 277 10.0 16.0 0.00 0.00 0.00 40 1015.2
20240522121513 75 222 9.0 17.0 0.00 0.00 0.00 41 1015.2
20240522113513 75 203 9.0 15.0 0.00 0.00 0.00 42 1015.2
20240522112513 75 236 7.0 14.0 0.00 0.00 0.00 39 1015.1
20240522112020 76 269 7.0 13.0 0.00 0.00 0.00 38 1015.1
20240522111512 76 236 8.0 16.0 0.00 0.00 0.00 39 1015.1
20240522110513 75 272 7.0 12.0 0.00 0.00 0.00 38 1015.0
20240522110014 76 231 9.0 15.0 0.00 0.00 0.00 38 1015.2
20240522105513 76 273 7.0 14.0 0.00 0.00 0.00 37 1015.1
20240522104513 77 274 6.0 14.0 0.00 0.00 0.00 26 1015.2
20240522102513 77 283 12.0 18.0 0.00 0.00 0.00 25 1015.5
20240522101513 77 304 9.0 16.0 0.00 0.00 0.00 25 1015.4
20240522101019 76 288 6.0 13.0 0.00 0.00 0.00 25 1015.3
20240522100512 76 290 9.0 15.0 0.00 0.00 0.00 25 1015.3
20240522094512 75 355 9.0 14.0 0.00 0.00 0.00 24 1015.3
20240522093512 75 284 9.0 18.0 0.00 0.00 0.00 23 1015.2
20240522092512 75 258 10.0 16.0 0.00 0.00 0.00 25 1015.2
20240522091020 74 5 6.0 10.0 0.00 0.00 0.00 30 1015.4
20240522084512 72 327 1.0 7.0 0.00 0.00 0.00 37 1015.5
20240522084020 72 250 6.0 8.0 0.00 0.00 0.00 38 1015.5
20240522083020 72 280 3.0 6.0 0.00 0.00 0.00 39 1015.6